Terminal Aerodrome Forecast
Issued by NWS

Home | Current Version | Previous Version | Text Only | Print | Product List | Glossary On
Versions: 1 2 3 4 5 6 7 8 9 10 11 12 13 14 15 16 17 18 19 20 21 22
000
FTUS46 KSEW 220500
TAFHQM
TAF
KHQM 220520Z 2206/2306 25007KT 4SM BR SCT013 OVC100
      TEMPO 2206/2210 BKN013 OVC100
     FM221000 VRB04KT 4SM BR OVC013
     FM221800 08005KT P6SM OVC020
     FM222000 08007KT P6SM SCT025 BKN120=

USA.gov is the U.S. government's official web portal to all federal, state and local government web resources and services.